Time;durP1;ratioP1;P1;durP2;ratioP2;P2;SDS_P1;SDS_P2;PMS_P1;PMS_P2;Temp;Humidity;BMP_temperature;BMP_pressure;BME280_temperature;BME280_humidity;BME280_pressure;Samples;Min_cycle;Max_cycle;Signal;HPM_P1;HPM_P2
2023/03/17 01:11:55;;;;;;;;;;;;;;;;;;;;;
2023/03/17 01:24:31;;;;;;;;;;;;;;;;;;;;;
2023/03/17 06:54:09;;;;;;;1.88;0.95;;;7.00;99.90;;;;;;5099218;27;1571245;-85
2023/03/17 06:56:35;;;;;;;2.75;1.15;;;7.20;99.90;;;;;;5137332;27;20047;-83
2023/03/17 06:59:03;;;;;;;1.48;0.70;;;7.30;99.90;;;;;;5129094;27;20085;-85
2023/03/17 07:01:29;;;;;;;1.33;0.73;;;7.30;99.90;;;;;;5123582;27;20129;-85
2023/03/17 07:03:55;;;;;;;1.25;0.60;;;7.20;99.90;;;;;;5150310;27;20074;-85
2023/03/17 07:06:24;;;;;;;0.93;0.63;;;7.20;99.90;;;;;;5148694;27;20077;-86
2023/03/17 07:08:57;;;;;;;1.23;0.70;;;7.20;99.90;;;;;;5128449;27;20046;-85
2023/03/17 07:11:23;;;;;;;1.20;0.70;;;7.20;99.90;;;;;;5132011;27;20054;-86
2023/03/17 07:13:49;;;;;;;1.50;0.80;;;8.30;99.90;;;;;;5143087;27;20034;-85
2023/03/17 07:16:21;;;;;;;3.28;0.82;;;7.20;99.90;;;;;;5133338;27;20405;-86
2023/03/17 07:18:47;;;;;;;0.70;0.52;;;7.30;99.90;;;;;;5101147;28;20070;-86
2023/03/17 07:21:16;;;;;;;1.10;0.57;;;7.30;99.90;;;;;;5114059;27;20075;-82
2023/03/17 07:23:42;;;;;;;1.67;0.88;;;7.30;99.90;;;;;;5150948;27;20039;-84
2023/03/17 07:26:08;;;;;;;1.60;0.60;;;7.30;99.90;;;;;;5124404;27;20071;-83
2023/03/17 07:28:37;;;;;;;3.10;0.93;;;7.00;99.90;;;;;;5144315;27;20516;-82
2023/03/17 07:31:06;;;;;;;3.67;1.02;;;7.40;99.90;;;;;;5150404;27;20038;-86
2023/03/17 07:33:32;;;;;;;2.58;0.90;;;7.40;99.90;;;;;;5131062;27;20045;-85
2023/03/17 07:36:05;;;;;;;2.15;1.10;;;7.60;99.90;;;;;;5126232;27;20038;-86
2023/03/17 07:38:32;;;;;;;1.58;0.85;;;7.60;99.90;;;;;;5128299;27;20424;-85
2023/03/17 07:40:58;;;;;;;3.22;1.20;;;7.60;99.90;;;;;;5126597;28;20517;-83
2023/03/17 07:43:37;;;;;;;1.85;1.13;;;8.20;99.90;;;;;;5111998;27;20174;-85
2023/03/17 07:46:14;;;;;;;1.00;0.60;;;7.80;99.90;;;;;;5126463;28;20119;-84
2023/03/17 07:48:42;;;;;;;3.88;1.00;;;7.90;99.90;;;;;;5148310;27;20086;-84
2023/03/17 07:51:30;;;;;;;2.92;1.27;;;8.70;99.90;;;;;;5125680;27;20039;-84
2023/03/17 07:54:02;;;;;;;1.85;1.10;;;8.40;99.90;;;;;;5129317;27;20417;-85
2023/03/17 07:56:32;;;;;;;3.50;1.00;;;8.60;99.90;;;;;;5106639;27;20570;-84
2023/03/17 07:59:11;;;;;;;3.55;1.30;;;8.90;99.90;;;;;;5127368;27;20035;-86
2023/03/17 08:01:38;;;;;;;2.88;1.08;;;9.20;99.90;;;;;;5135765;27;20035;-83
2023/03/17 08:04:06;;;;;;;2.58;1.10;;;9.30;99.90;;;;;;5136171;27;20114;-83
2023/03/17 08:06:32;;;;;;;1.95;0.90;;;9.50;99.90;;;;;;5102116;28;20501;-83
2023/03/17 08:08:58;;;;;;;2.03;1.00;;;9.60;99.90;;;;;;5124764;27;20075;-84
2023/03/17 08:20:04;;;;;;;2.13;1.10;;;9.70;99.90;;;;;;5008644;28;20571;-89
2023/03/17 08:23:47;;;;;;;1.92;1.13;;;9.70;99.90;;;;;;4959372;28;20145;-89
2023/03/17 08:27:09;;;;;;;1.50;1.08;;;10.10;99.90;;;;;;4939751;28;20082;-87
2023/03/17 11:38:25;;;;;;;;;;;;;;;;;;;;;
2023/03/17 11:56:59;;;;;;;2.92;1.40;;;17.40;99.90;;;;;;5924777;24;20036;-87
2023/03/17 12:07:06;;;;;;;;;;;;;;;;;;;;;
2023/03/17 12:10:44;;;;;;;3.08;1.50;;;19.40;99.90;;;;;;5844273;24;20093;-88
2023/03/17 12:13:44;;;;;;;2.60;1.33;;;18.00;98.80;;;;;;5874812;24;20029;-89
2023/03/17 12:23:01;;;;;;;4.30;2.15;;;18.10;99.30;;;;;;5897447;24;20331;-87
2023/03/17 12:25:56;;;;;;;3.65;1.80;;;18.40;99.30;;;;;;5875064;24;20038;-89
2023/03/17 12:29:12;;;;;;;2.67;1.35;;;18.40;98.90;;;;;;5767346;24;20380;-90
2023/03/17 12:39:13;;;;;;;2.85;1.60;;;18.60;99.30;;;;;;5791295;24;20061;-89
2023/03/17 12:41:47;;;;;;;3.92;1.92;;;18.50;99.40;;;;;;5812983;24;20019;-88
2023/03/17 12:44:14;;;;;;;2.83;1.95;;;18.70;99.30;;;;;;5768853;24;20015;-86
2023/03/17 12:51:05;;;;;;;5.05;2.22;;;18.60;99.90;;;;;;5900606;24;20468;-89
2023/03/17 12:53:54;;;;;;;3.47;1.40;;;18.40;97.60;;;;;;5924731;24;20021;-88
2023/03/17 12:56:45;;;;;;;;;;;;;;;;;;;;;
2023/03/17 13:07:35;;;;;;;;;;;;;;;;;;;;;
2023/03/17 13:13:43;;;;;;;6.63;2.70;;;18.30;98.90;;;;;;6008382;23;20027;-90
2023/03/17 13:16:40;;;;;;;4.20;2.15;;;18.30;99.10;;;;;;6009022;23;20035;-88
2023/03/17 13:19:53;;;;;;;4.35;1.95;;;18.20;99.00;;;;;;5981473;24;20087;-91
2023/03/17 13:26:24;;;;;;;5.05;1.90;;;18.10;98.70;;;;;;5925452;24;19963;-92
2023/03/17 13:29:02;;;;;;;4.15;2.08;;;18.10;99.60;;;;;;5903015;24;20038;-91
2023/03/17 15:40:12;;;;;;;;;;;;;;;;;;;;;
2023/03/17 16:56:41;;;;;;;4.90;1.95;;;15.00;99.90;;;;;;6105949;21;4228861;-90
2023/03/17 16:59:20;;;;;;;3.30;1.90;;;14.60;99.90;;;;;;6254700;22;20020;-85
2023/03/17 17:05:01;;;;;;;5.82;2.30;;;14.50;99.90;;;;;;6245361;22;20114;-88
2023/03/17 17:10:04;;;;;;;3.38;2.00;;;14.30;99.90;;;;;;6264159;22;20028;-89
2023/03/17 17:17:15;;;;;;;5.72;2.65;;;15.40;99.90;;;;;;6087955;23;20033;-91
2023/03/17 17:20:27;;;;;;;4.07;2.00;;;15.90;99.90;;;;;;6055972;23;20045;-87
2023/03/17 17:23:01;;;;;;;4.25;1.90;;;13.70;99.90;;;;;;6102586;23;20018;-90
2023/03/17 17:25:38;;;;;;;4.00;2.10;;;13.90;99.90;;;;;;6079298;23;20361;-89
2023/03/17 17:28:26;;;;;;;2.88;1.90;;;13.90;99.90;;;;;;6102653;23;20018;-89
2023/03/17 17:31:10;;;;;;;4.38;2.00;;;14.20;99.90;;;;;;6102270;23;20023;-89
2023/03/17 17:35:02;;;;;;;3.88;2.22;;;13.80;99.90;;;;;;6105335;23;20523;-90
2023/03/17 17:53:04;;;;;;;6.35;2.72;;;13.00;99.90;;;;;;5950028;24;20061;-91
2023/03/17 17:55:43;;;;;;;4.57;2.65;;;12.80;99.90;;;;;;5936253;24;20421;-89
2023/03/17 17:58:20;;;;;;;5.50;3.00;;;12.70;99.90;;;;;;5932412;24;20009;-91
2023/03/17 18:08:48;;;;;;;;;;;;;;;;;;;;;
2023/03/17 18:18:15;;;;;;;7.97;4.43;;;12.00;99.90;;;;;;5823204;24;20026;-89
2023/03/17 18:20:56;;;;;;;9.43;5.47;;;11.90;99.90;;;;;;5822588;24;20007;-86
2023/03/17 18:23:21;;;;;;;7.00;4.63;;;11.70;99.90;;;;;;5823731;24;20455;-84
2023/03/17 18:25:50;;;;;;;6.55;3.63;;;11.70;99.90;;;;;;5821819;24;20026;-87
2023/03/17 18:28:29;;;;;;;10.05;4.72;;;11.30;99.90;;;;;;5822348;24;20010;-87
2023/03/17 18:42:06;;;;;;;7.32;4.45;;;11.30;99.90;;;;;;5845163;24;20091;-89
2023/03/17 18:44:34;;;;;;;7.20;4.45;;;11.20;99.90;;;;;;5860657;24;20423;-87
2023/03/17 18:47:00;;;;;;;6.78;3.53;;;11.10;99.90;;;;;;5908785;24;20199;-87
2023/03/17 18:49:27;;;;;;;7.45;4.70;;;11.20;99.90;;;;;;6037145;23;20030;-86
2023/03/17 18:51:58;;;;;;;8.48;5.25;;;11.00;99.90;;;;;;6014803;23;20015;-86
2023/03/17 18:54:27;;;;;;;7.88;4.85;;;11.00;99.90;;;;;;6189457;23;20016;-87
2023/03/17 18:56:56;;;;;;;8.40;4.63;;;10.90;99.90;;;;;;6189705;23;20020;-88
2023/03/17 18:59:25;;;;;;;7.95;4.75;;;10.90;99.90;;;;;;6189876;23;20020;-89
2023/03/17 19:01:57;;;;;;;7.65;4.57;;;10.80;99.90;;;;;;6189393;23;20048;-87
2023/03/17 19:04:23;;;;;;;9.00;4.68;;;10.80;99.90;;;;;;6189733;23;20020;-88
2023/03/17 19:07:06;;;;;;;6.85;4.03;;;10.70;99.90;;;;;;6181719;23;20070;-87
2023/03/17 19:09:32;;;;;;;6.32;3.63;;;10.90;99.90;;;;;;6219669;23;20016;-86
2023/03/17 19:11:58;;;;;;;6.15;3.97;;;10.60;99.90;;;;;;6246239;23;20016;-87
2023/03/17 19:14:45;;;;;;;7.05;4.15;;;10.60;99.90;;;;;;6220141;23;20089;-87
2023/03/17 19:17:11;;;;;;;7.85;4.78;;;10.20;99.90;;;;;;6219722;23;20020;-86
2023/03/17 19:19:37;;;;;;;7.50;4.13;;;10.50;99.90;;;;;;6219857;23;20280;-87
2023/03/17 19:22:06;;;;;;;6.97;4.00;;;10.40;99.90;;;;;;6246580;22;20384;-87
2023/03/17 19:24:37;;;;;;;5.75;3.47;;;10.70;99.90;;;;;;6219622;23;20020;-87
2023/03/17 19:27:06;;;;;;;7.50;4.75;;;10.30;99.90;;;;;;6219453;23;20024;-86
2023/03/17 19:29:43;;;;;;;7.88;4.38;;;10.30;99.90;;;;;;6219394;23;20051;-89
2023/03/17 19:32:10;;;;;;;7.75;4.00;;;10.30;99.90;;;;;;6241617;23;20016;-86
2023/03/17 19:34:38;;;;;;;8.50;4.90;;;10.20;99.90;;;;;;6220039;23;20027;-88
2023/03/17 19:37:15;;;;;;;7.47;4.40;;;10.20;99.90;;;;;;6194620;23;20023;-87
2023/03/17 19:39:54;;;;;;;9.10;4.70;;;10.00;99.90;;;;;;6218010;23;20148;-87
2023/03/17 19:42:37;;;;;;;7.57;4.63;;;10.10;99.90;;;;;;6219312;23;20024;-88
2023/03/17 19:45:08;;;;;;;7.18;4.55;;;10.10;99.90;;;;;;6219153;23;20399;-87
2023/03/17 19:47:35;;;;;;;6.85;4.57;;;10.10;99.90;;;;;;6244836;23;20099;-87
2023/03/17 19:50:03;;;;;;;7.85;4.68;;;9.70;99.90;;;;;;6219116;23;20020;-87
2023/03/17 19:52:38;;;;;;;7.72;3.55;;;10.00;99.90;;;;;;6246099;22;20048;-87
2023/03/17 19:55:18;;;;;;;11.15;4.55;;;10.00;99.90;;;;;;6218467;23;20103;-87
2023/03/17 19:57:46;;;;;;;5.68;3.75;;;9.90;99.90;;;;;;6245164;23;20463;-88
2023/03/17 20:00:24;;;;;;;7.00;4.05;;;9.90;99.90;;;;;;6219407;23;20020;-86
2023/03/17 20:02:53;;;;;;;7.05;4.05;;;9.90;99.90;;;;;;6218548;23;20016;-88
2023/03/17 20:05:19;;;;;;;8.02;4.65;;;9.90;99.90;;;;;;6218334;23;20020;-86
2023/03/17 20:07:48;;;;;;;7.85;4.45;;;9.80;99.90;;;;;;6244467;23;20019;-85
2023/03/17 20:10:16;;;;;;;9.15;5.40;;;9.80;99.90;;;;;;6193504;23;20059;-87
2023/03/17 20:12:44;;;;;;;8.15;5.28;;;9.70;99.90;;;;;;6218771;23;20335;-86
2023/03/17 20:15:15;;;;;;;11.95;6.25;;;9.70;99.90;;;;;;6218831;23;20026;-87
2023/03/17 20:18:00;;;;;;;;;;;;;;;;;;;;;
2023/03/17 20:20:35;;;;;;;13.00;7.03;;;9.70;99.90;;;;;;6213980;23;20498;-88
2023/03/17 20:23:06;;;;;;;9.32;6.13;;;9.60;99.90;;;;;;6218421;23;20098;-88
2023/03/17 20:25:42;;;;;;;12.35;6.95;;;9.50;99.90;;;;;;6218828;23;20031;-86
2023/03/17 20:28:09;;;;;;;9.73;5.35;;;9.50;99.90;;;;;;6218292;23;20023;-86
2023/03/17 20:30:39;;;;;;;7.90;4.97;;;9.40;99.90;;;;;;6219094;23;20060;-88
2023/03/17 20:44:11;;;;;;;10.82;5.13;;;9.60;99.90;;;;;;6245292;23;20450;-87
2023/03/17 20:46:41;;;;;;;9.45;5.20;;;9.50;99.90;;;;;;6218878;23;20016;-88
2023/03/17 20:49:08;;;;;;;8.20;5.10;;;9.40;99.90;;;;;;6218029;23;20074;-89
2023/03/17 20:51:39;;;;;;;7.40;4.97;;;9.30;99.90;;;;;;6217904;23;20020;-88
2023/03/17 20:54:09;;;;;;;8.95;5.28;;;9.30;99.90;;;;;;6218679;23;20074;-87
2023/03/17 20:56:36;;;;;;;9.73;6.00;;;9.30;99.90;;;;;;6218586;23;20358;-86
2023/03/17 20:59:05;;;;;;;7.95;4.97;;;9.30;99.90;;;;;;6245198;23;20083;-88
2023/03/17 21:01:37;;;;;;;8.43;4.82;;;9.30;99.90;;;;;;6244993;23;20047;-88
2023/03/17 21:04:09;;;;;;;6.65;4.35;;;9.30;99.90;;;;;;6191921;23;20027;-87
2023/03/17 21:06:44;;;;;;;7.28;3.88;;;9.30;99.90;;;;;;6245181;23;20023;-88
2023/03/17 21:09:10;;;;;;;45.42;41.85;;;9.30;99.90;;;;;;6218582;23;20020;-86
2023/03/17 21:11:38;;;;;;;6.28;3.78;;;9.30;99.90;;;;;;6218132;23;20047;-86
2023/03/17 21:14:06;;;;;;;6.72;3.92;;;9.30;99.90;;;;;;6245833;23;20053;-87
2023/03/17 21:16:35;;;;;;;8.05;4.15;;;9.30;99.90;;;;;;6218168;23;20024;-87
2023/03/17 21:19:01;;;;;;;6.53;4.10;;;9.30;99.90;;;;;;6218387;23;20062;-87
2023/03/17 21:21:27;;;;;;;12.18;11.15;;;9.30;99.90;;;;;;6244998;23;20027;-87
2023/03/17 21:23:54;;;;;;;6.22;3.65;;;9.20;99.90;;;;;;6218492;23;20024;-87
2023/03/17 21:26:20;;;;;;;5.35;3.28;;;9.30;99.90;;;;;;6245632;23;20091;-87
2023/03/17 21:28:46;;;;;;;4.85;3.22;;;9.50;99.90;;;;;;6218843;23;20415;-87
2023/03/17 21:31:13;;;;;;;6.03;3.55;;;8.80;99.90;;;;;;6219412;23;20020;-87
2023/03/17 21:33:40;;;;;;;5.05;3.15;;;9.30;99.90;;;;;;6219840;23;20016;-86
2023/03/17 21:36:06;;;;;;;5.60;3.58;;;9.30;99.90;;;;;;6220357;23;20441;-87
2023/03/17 21:38:32;;;;;;;6.13;3.97;;;9.30;99.90;;;;;;6220070;23;20052;-86
2023/03/17 21:41:16;;;;;;;5.28;3.28;;;9.30;99.90;;;;;;6220148;23;20067;-88
2023/03/17 21:43:42;;;;;;;6.95;4.18;;;9.30;99.90;;;;;;6220042;23;20016;-87
2023/03/17 21:46:07;;;;;;;7.28;3.80;;;9.20;99.90;;;;;;6247264;23;20043;-87
2023/03/17 21:48:33;;;;;;;7.88;4.72;;;9.20;99.90;;;;;;6220189;23;20414;-88
2023/03/17 21:50:59;;;;;;;6.82;4.03;;;9.20;99.90;;;;;;6247211;23;20016;-86
2023/03/17 21:53:24;;;;;;;8.23;4.25;;;9.30;99.90;;;;;;6247053;23;20138;-87
2023/03/17 21:55:50;;;;;;;9.45;3.85;;;9.20;99.90;;;;;;6219914;23;20020;-86
2023/03/17 21:58:16;;;;;;;5.88;3.72;;;9.20;99.90;;;;;;6220146;23;20114;-86
2023/03/17 22:00:42;;;;;;;7.55;4.07;;;9.30;99.90;;;;;;6246994;23;20020;-86
2023/03/17 22:03:08;;;;;;;4.93;3.08;;;9.20;99.90;;;;;;6246397;23;20019;-89
2023/03/17 22:05:34;;;;;;;9.23;4.28;;;9.20;99.90;;;;;;6219446;23;20026;-87
2023/03/17 22:08:11;;;;;;;6.65;3.70;;;9.20;99.90;;;;;;6220620;23;20056;-91
2023/03/17 22:10:56;;;;;;;5.72;3.80;;;9.20;99.90;;;;;;6246997;23;20027;-90
2023/03/17 22:14:05;;;;;;;7.22;3.63;;;9.30;99.90;;;;;;6246909;23;20100;-89
2023/03/17 22:16:58;;;;;;;6.43;3.70;;;9.20;99.90;;;;;;6098703;23;20061;-90
2023/03/17 22:19:42;;;;;;;;;;;;;;;;;;;;;
2023/03/17 22:22:23;;;;;;;6.30;3.70;;;9.30;99.90;;;;;;6052546;23;20341;-89
2023/03/17 22:25:30;;;;;;;;;;;;;;;;;;;;;
2023/03/17 22:28:39;;;;;;;6.13;3.70;;;9.30;99.90;;;;;;6096527;23;20022;-88
2023/03/17 22:45:53;;;;;;;;;;;;;;;;;;;;;
2023/03/17 23:08:34;;;;;;;;;;;;;;;;;;;;;
